Time;durP1;ratioP1;P1;durP2;ratioP2;P2;SDS_P1;SDS_P2;PMS_P1;PMS_P2;Temp;Humidity;BMP_temperature;BMP_pressure;BME280_temperature;BME280_humidity;BME280_pressure;Samples;Min_cycle;Max_cycle;Signal;HPM_P1;HPM_P2
2023/05/03 00:02:23;;;;;;;0.50;0.50;;;18.10;66.40;;;18.28;50.34;95498.00;5054495;28;20222;-59
2023/05/03 00:04:54;;;;;;;0.40;0.40;;;18.10;66.40;;;18.31;50.75;95502.88;5055002;28;20183;-60
2023/05/03 00:07:21;;;;;;;0.60;0.60;;;18.10;66.60;;;18.28;50.61;95497.22;5055054;28;20188;-59
2023/05/03 00:09:49;;;;;;;0.40;0.40;;;18.10;66.50;;;18.29;50.21;95496.97;5054997;28;20545;-59
2023/05/03 00:12:16;;;;;;;0.50;0.50;;;18.10;66.50;;;18.30;50.22;95501.25;5055511;28;20303;-59
2023/05/03 00:14:45;;;;;;;0.50;0.50;;;18.10;66.50;;;18.30;50.57;95497.81;5055208;28;20202;-59
2023/05/03 00:17:12;;;;;;;0.50;0.50;;;18.10;66.50;;;18.29;50.23;95494.31;5054209;28;20218;-59
2023/05/03 00:19:39;;;;;;;0.50;0.50;;;18.10;66.50;;;18.27;50.62;95493.72;5054947;28;20187;-58
2023/05/03 00:22:07;;;;;;;0.50;0.50;;;18.10;66.50;;;18.26;50.64;95496.63;5054726;28;20239;-59
2023/05/03 00:24:35;;;;;;;0.50;0.50;;;18.10;66.50;;;18.27;50.80;95496.38;5054309;28;20214;-59
2023/05/03 00:27:03;;;;;;;0.40;0.40;;;18.10;66.60;;;18.26;50.39;95486.00;5053766;28;20195;-59
2023/05/03 00:29:31;;;;;;;0.47;0.47;;;18.10;66.60;;;18.25;50.58;95490.50;5054833;28;20198;-60
2023/05/03 00:31:59;;;;;;;0.43;0.43;;;18.00;66.60;;;18.25;50.77;95493.16;5037579;28;20207;-58
2023/05/03 00:34:26;;;;;;;0.40;0.40;;;18.00;66.60;;;18.24;50.66;95492.34;5054011;28;20631;-59
2023/05/03 00:36:53;;;;;;;0.50;0.50;;;18.00;66.60;;;18.24;50.50;95487.03;5070392;28;20203;-55
2023/05/03 00:39:20;;;;;;;0.40;0.40;;;18.10;66.80;;;18.26;50.86;95493.97;5053783;28;20206;-59
2023/05/03 00:41:47;;;;;;;0.50;0.50;;;18.00;67.60;;;18.25;51.10;95487.84;5054611;28;20199;-57
2023/05/03 00:44:15;;;;;;;0.50;0.50;;;18.00;66.70;;;18.24;50.58;95488.88;5054669;28;20183;-59
2023/05/03 00:46:42;;;;;;;0.50;0.50;;;18.10;66.70;;;18.23;50.84;95490.72;5057843;28;20183;-59
2023/05/03 00:49:09;;;;;;;0.60;0.60;;;18.10;66.70;;;18.21;50.84;95492.81;5057735;28;20727;-60
2023/05/03 00:51:37;;;;;;;0.50;0.50;;;18.00;66.50;;;18.19;51.08;95489.56;5057820;28;20619;-57
2023/05/03 00:54:04;;;;;;;0.40;0.40;;;18.00;66.50;;;18.20;51.00;95493.84;5057635;28;20205;-60
2023/05/03 00:56:32;;;;;;;0.50;0.50;;;18.00;66.60;;;18.18;51.01;95493.22;5058004;28;20187;-58
2023/05/03 00:59:18;;;;;;;0.55;0.55;;;18.00;66.60;;;18.15;50.45;95496.34;5057618;28;20196;-60
2023/05/03 01:01:49;;;;;;;0.50;0.50;;;18.00;66.50;;;18.16;50.54;95500.63;5057388;28;20646;-60
2023/05/03 01:04:19;;;;;;;0.57;0.57;;;18.00;66.60;;;18.14;50.82;95501.88;5057623;28;20183;-59
2023/05/03 01:07:22;;;;;;;0.50;0.50;;;18.00;66.60;;;18.12;50.91;95506.63;5057336;28;20598;-59
2023/05/03 01:10:14;;;;;;;0.60;0.60;;;18.00;66.70;;;18.10;50.71;95508.66;5058666;28;20207;-59
2023/05/03 01:13:00;;;;;;;0.50;0.50;;;18.00;66.70;;;18.09;50.61;95502.56;5058263;28;20180;-58
2023/05/03 01:15:47;;;;;;;0.55;0.55;;;17.90;66.70;;;18.09;51.07;95505.22;5073924;28;20204;-59
2023/05/03 01:18:20;;;;;;;0.60;0.60;;;18.00;66.70;;;18.10;50.69;95506.81;5057382;28;20176;-59
2023/05/03 01:20:49;;;;;;;0.50;0.50;;;17.90;66.70;;;18.10;51.29;95500.72;5057574;28;20191;-59
2023/05/03 01:23:39;;;;;;;0.50;0.50;;;18.00;66.70;;;18.10;50.73;95508.66;5057928;28;20234;-58
2023/05/03 01:26:23;;;;;;;0.50;0.50;;;17.90;66.80;;;18.08;50.64;95503.59;5058149;28;20179;-59
2023/05/03 01:28:51;;;;;;;0.60;0.60;;;17.90;66.80;;;18.09;51.17;95507.88;5058139;28;20180;-60
2023/05/03 01:31:35;;;;;;;0.50;0.50;;;17.90;66.80;;;18.10;50.61;95504.16;5057253;28;20195;-59
2023/05/03 01:34:49;;;;;;;0.40;0.40;;;17.90;67.00;;;18.07;51.05;95505.41;5057634;28;20194;-59
2023/05/03 01:37:17;;;;;;;0.30;0.30;;;17.90;66.90;;;18.07;50.88;95501.97;5040478;28;20195;-59
2023/05/03 01:39:50;;;;;;;0.50;0.50;;;17.90;66.90;;;18.10;51.05;95495.41;5057103;28;20635;-58
2023/05/03 01:42:19;;;;;;;0.50;0.50;;;17.90;66.90;;;18.09;51.10;95510.53;5056904;28;20298;-60
2023/05/03 01:44:48;;;;;;;0.57;0.57;;;17.90;67.80;;;18.11;51.16;95511.09;5057121;28;20261;-58
2023/05/03 01:47:16;;;;;;;0.50;0.50;;;17.90;67.00;;;18.12;51.22;95511.94;5057107;28;20198;-57
2023/05/03 01:49:43;;;;;;;0.50;0.50;;;17.90;67.00;;;18.12;51.19;95514.56;5057688;28;20194;-59
2023/05/03 01:52:10;;;;;;;0.50;0.50;;;17.90;67.10;;;18.11;51.17;95513.75;5056571;28;20214;-59
2023/05/03 01:54:37;;;;;;;0.50;0.50;;;17.90;67.10;;;18.13;51.67;95511.69;5057730;28;20192;-57
2023/05/03 01:57:04;;;;;;;0.60;0.60;;;18.00;67.20;;;18.13;51.27;95511.69;5055765;28;20199;-59
2023/05/03 01:59:31;;;;;;;0.50;0.50;;;17.90;67.10;;;18.13;51.35;95514.34;5056997;28;20191;-59
2023/05/03 02:01:59;;;;;;;0.50;0.50;;;17.90;67.20;;;18.14;51.15;95518.63;5057277;28;20192;-58
2023/05/03 02:04:26;;;;;;;0.50;0.50;;;17.90;67.10;;;18.14;51.06;95508.00;5056949;28;20207;-59
2023/05/03 02:06:54;;;;;;;0.50;0.50;;;17.90;67.10;;;18.16;51.51;95515.75;5056164;28;20199;-59
2023/05/03 02:09:21;;;;;;;0.50;0.50;;;18.00;67.20;;;18.14;51.25;95518.63;5057478;28;20653;-59
2023/05/03 02:11:48;;;;;;;0.50;0.50;;;18.00;67.20;;;18.15;51.14;95517.59;5056341;28;20195;-58
2023/05/03 02:14:16;;;;;;;0.50;0.50;;;18.00;67.20;;;18.15;51.29;95520.25;5073135;28;20199;-59
2023/05/03 02:16:43;;;;;;;0.55;0.55;;;18.00;67.20;;;18.16;51.51;95521.06;5039982;28;20196;-59
2023/05/03 02:19:10;;;;;;;0.50;0.50;;;18.00;67.30;;;18.15;51.68;95517.59;5057015;28;20587;-59
2023/05/03 02:21:38;;;;;;;0.50;0.50;;;18.00;67.20;;;18.15;51.29;95517.59;5055970;28;20223;-58
2023/05/03 02:24:06;;;;;;;0.50;0.50;;;18.00;67.20;;;18.17;51.23;95527.97;5055973;28;20241;-60
2023/05/03 02:26:33;;;;;;;0.60;0.60;;;18.00;67.20;;;18.16;51.63;95521.06;5055844;28;20200;-59
2023/05/03 02:29:00;;;;;;;0.50;0.50;;;18.00;67.20;;;18.16;51.74;95521.06;5057050;28;20199;-59
2023/05/03 02:31:30;;;;;;;0.50;0.50;;;18.00;67.30;;;18.16;51.17;95527.19;5055884;28;20188;-59
2023/05/03 02:33:58;;;;;;;0.50;0.50;;;18.00;67.20;;;18.16;51.36;95515.75;5055995;28;20203;-58
2023/05/03 02:36:25;;;;;;;0.47;0.47;;;18.00;67.30;;;18.16;51.48;95523.69;5055663;28;20210;-59
2023/05/03 02:38:53;;;;;;;0.50;0.50;;;18.00;67.30;;;18.16;51.51;95526.34;5056010;28;20215;-59
2023/05/03 02:41:20;;;;;;;0.50;0.50;;;18.00;67.30;;;18.15;51.73;95536.19;5072296;28;20290;-59
2023/05/03 02:43:48;;;;;;;0.50;0.50;;;18.10;67.30;;;18.16;51.50;95535.16;5055543;28;20306;-57
2023/05/03 02:46:15;;;;;;;0.50;0.50;;;18.00;67.30;;;18.15;51.88;95530.88;5072097;28;20195;-59
2023/05/03 02:48:42;;;;;;;0.40;0.40;;;18.00;67.30;;;18.16;51.80;95526.34;5055511;28;20583;-59
2023/05/03 02:51:10;;;;;;;0.40;0.40;;;18.00;67.30;;;18.15;51.36;95530.88;5072320;28;20203;-58
2023/05/03 02:53:37;;;;;;;0.50;0.50;;;18.00;67.30;;;18.15;51.58;95528.22;5055450;28;20211;-59
2023/05/03 02:56:05;;;;;;;0.50;0.50;;;18.00;67.30;;;18.14;51.08;95526.59;5055866;28;20210;-58
2023/05/03 02:58:32;;;;;;;0.40;0.40;;;18.00;67.30;;;18.14;51.54;95534.56;5056177;28;20200;-58
2023/05/03 03:01:01;;;;;;;0.50;0.50;;;18.00;67.30;;;18.14;51.69;95523.09;5055275;28;20192;-56
2023/05/03 03:03:29;;;;;;;0.43;0.43;;;18.00;67.30;;;18.14;51.29;95529.25;5055905;28;20276;-58
2023/05/03 03:05:56;;;;;;;0.50;0.50;;;18.00;67.30;;;18.13;51.28;95521.50;5056150;28;20195;-59
2023/05/03 03:08:24;;;;;;;0.50;0.50;;;17.90;67.20;;;18.13;51.54;95532.94;5055063;28;20206;-59
2023/05/03 03:10:53;;;;;;;0.50;0.50;;;17.90;67.20;;;18.12;51.61;95531.31;5071781;28;20226;-58
2023/05/03 03:13:20;;;;;;;0.60;0.60;;;18.00;67.20;;;18.13;51.22;95542.75;5038564;28;20199;-58
2023/05/03 03:15:47;;;;;;;0.50;0.50;;;18.00;67.30;;;18.12;51.35;95541.91;5055040;28;20195;-59
2023/05/03 03:18:16;;;;;;;0.50;0.50;;;18.00;67.30;;;18.12;51.42;95547.22;5054857;28;20607;-59
2023/05/03 03:20:46;;;;;;;0.50;0.50;;;17.90;67.20;;;18.12;51.88;95543.78;5071614;28;20210;-59
2023/05/03 03:23:13;;;;;;;0.50;0.50;;;17.90;67.30;;;18.09;51.36;95550.34;5054822;28;20239;-59
2023/05/03 03:25:41;;;;;;;0.50;0.50;;;17.90;67.30;;;18.12;51.69;95554.41;5055077;28;20291;-59
2023/05/03 03:28:09;;;;;;;0.50;0.50;;;17.90;67.30;;;18.11;51.71;95547.47;5055365;28;20333;-57
2023/05/03 03:30:37;;;;;;;0.47;0.47;;;17.90;67.20;;;18.11;51.47;95560.75;5071360;28;20199;-58
2023/05/03 03:33:15;;;;;;;0.50;0.50;;;18.00;67.40;;;18.10;51.89;95553.81;5039762;28;20188;-58
2023/05/03 03:35:42;;;;;;;0.50;0.50;;;17.90;67.30;;;18.08;51.78;95552.19;5055849;28;20206;-57
2023/05/03 03:38:10;;;;;;;0.50;0.50;;;18.00;67.50;;;18.10;51.68;95553.81;5071135;28;20196;-58
2023/05/03 03:40:46;;;;;;;0.50;0.50;;;17.90;67.30;;;18.07;51.67;95555.06;5055834;28;20544;-59
2023/05/03 03:43:13;;;;;;;0.50;0.50;;;18.00;67.30;;;18.06;51.82;95553.44;5055574;28;20226;-60
2023/05/03 03:45:40;;;;;;;0.50;0.50;;;17.90;67.30;;;18.08;51.67;95551.38;5054839;28;20191;-57
2023/05/03 03:48:09;;;;;;;0.50;0.50;;;17.90;67.30;;;18.07;51.77;95555.84;5054465;28;20195;-55
2023/05/03 03:50:36;;;;;;;0.60;0.60;;;17.90;67.40;;;18.07;51.81;95560.38;5054378;28;20282;-58
2023/05/03 03:53:05;;;;;;;0.50;0.50;;;17.90;67.40;;;18.06;51.97;95567.50;5054370;28;20210;-54
2023/05/03 03:55:33;;;;;;;0.50;0.50;;;17.90;67.40;;;18.06;51.73;95564.84;5054310;28;20203;-58
2023/05/03 03:58:00;;;;;;;0.50;0.50;;;17.90;67.40;;;18.05;52.11;95565.09;5054573;28;20203;-59
2023/05/03 04:00:28;;;;;;;0.50;0.50;;;17.90;67.50;;;18.06;52.02;95558.75;5054579;28;20203;-57
2023/05/03 04:03:05;;;;;;;0.50;0.50;;;17.90;67.50;;;18.00;51.84;95563.09;5070856;28;20292;-56
2023/05/03 04:05:34;;;;;;;0.50;0.50;;;17.90;67.50;;;18.04;51.70;95569.59;5054148;28;20206;-57
2023/05/03 04:08:02;;;;;;;0.50;0.50;;;17.90;67.50;;;18.05;51.94;95573.88;5070764;28;20191;-57
2023/05/03 04:10:31;;;;;;;0.50;0.50;;;17.90;67.40;;;18.05;51.65;95570.41;5054111;28;20203;-55
2023/05/03 04:12:59;;;;;;;0.50;0.50;;;17.90;67.40;;;18.04;52.05;95579.38;5070718;28;20203;-55
2023/05/03 04:15:26;;;;;;;0.50;0.50;;;17.90;67.40;;;18.05;51.91;95581.00;5070756;28;20199;-55
2023/05/03 04:17:56;;;;;;;0.50;0.50;;;17.90;67.40;;;18.04;51.27;95580.22;5053967;28;20195;-57
2023/05/03 04:20:24;;;;;;;0.52;0.52;;;17.90;67.40;;;18.02;51.38;95574.31;5053563;28;20206;-58
2023/05/03 04:22:51;;;;;;;0.50;0.50;;;17.90;67.30;;;18.03;51.68;95581.25;5054006;28;20243;-55
2023/05/03 04:25:24;;;;;;;0.50;0.50;;;17.90;67.20;;;18.00;51.56;95579.03;5054033;28;20279;-59
2023/05/03 04:27:57;;;;;;;0.50;0.50;;;17.90;67.30;;;17.99;51.83;95589.88;5070747;28;20202;-58
2023/05/03 04:30:28;;;;;;;0.60;0.60;;;17.90;67.20;;;17.99;51.74;95584.56;5053898;28;20205;-53
2023/05/03 04:32:59;;;;;;;0.50;0.50;;;17.90;67.20;;;17.96;51.52;95577.84;5054810;28;20591;-54
2023/05/03 04:35:28;;;;;;;0.50;0.50;;;17.90;67.20;;;17.96;51.36;95585.81;5053813;28;20203;-55
2023/05/03 04:37:57;;;;;;;0.45;0.45;;;17.90;67.20;;;17.95;51.74;95589.50;5053706;28;20199;-54
2023/05/03 04:40:26;;;;;;;0.40;0.40;;;17.90;67.20;;;17.94;51.60;95590.50;5054049;28;20210;-55
2023/05/03 04:43:04;;;;;;;0.45;0.45;;;17.90;67.10;;;17.92;51.66;95596.03;5054247;28;20718;-54
2023/05/03 04:45:34;;;;;;;0.52;0.52;;;17.80;67.10;;;17.92;51.29;95596.03;5053763;28;20258;-57
2023/05/03 04:48:04;;;;;;;0.40;0.40;;;17.80;67.20;;;17.91;51.51;95593.59;5037582;28;20257;-57
2023/05/03 04:50:32;;;;;;;0.50;0.50;;;17.80;67.10;;;17.88;51.57;95586.06;5070471;28;20205;-57
2023/05/03 04:53:00;;;;;;;0.60;0.60;;;17.80;67.20;;;17.90;51.25;95603.38;5053659;28;20204;-55
2023/05/03 04:55:29;;;;;;;0.50;0.50;;;17.80;67.30;;;17.90;51.72;95606.03;5054553;28;20229;-54
2023/05/03 04:57:58;;;;;;;0.57;0.57;;;17.80;67.30;;;17.92;51.26;95608.50;5054887;28;20188;-54
2023/05/03 05:00:25;;;;;;;0.45;0.45;;;17.80;67.40;;;17.92;51.70;95616.47;5053617;28;20520;-55
2023/05/03 05:02:58;;;;;;;0.60;0.60;;;17.80;67.30;;;17.92;51.64;95611.94;5054150;28;20195;-55
2023/05/03 05:05:28;;;;;;;0.50;0.50;;;17.80;67.40;;;17.93;51.70;95612.75;5053868;28;20200;-59
2023/05/03 05:07:57;;;;;;;0.45;0.45;;;17.80;67.40;;;17.92;51.83;95613.81;5053368;28;20599;-57
2023/05/03 05:10:27;;;;;;;0.43;0.43;;;17.80;67.30;;;17.93;51.57;95618.06;5054086;28;20196;-58
2023/05/03 05:12:55;;;;;;;0.50;0.50;;;17.80;67.30;;;17.94;51.81;95617.03;5053473;28;20199;-58
2023/05/03 05:15:22;;;;;;;0.50;0.50;;;17.80;67.30;;;17.94;51.49;95625.00;5053481;28;20224;-59
2023/05/03 05:17:50;;;;;;;0.50;0.50;;;17.80;67.40;;;17.93;52.01;95629.50;5053547;28;20227;-57
2023/05/03 05:20:19;;;;;;;0.40;0.40;;;17.80;67.40;;;17.94;51.41;95625.00;5053564;28;20282;-57
2023/05/03 05:22:48;;;;;;;0.50;0.50;;;17.80;67.40;;;17.93;52.04;95634.81;5069852;28;20674;-55
2023/05/03 05:25:15;;;;;;;0.55;0.55;;;17.80;67.40;;;17.94;51.95;95632.97;5036957;28;20207;-57
2023/05/03 05:27:43;;;;;;;0.50;0.50;;;17.80;67.40;;;17.93;51.62;95631.31;5070131;28;20623;-58
2023/05/03 05:30:10;;;;;;;0.40;0.40;;;17.80;67.50;;;17.93;51.66;95626.03;5053326;28;20212;-59
2023/05/03 05:32:40;;;;;;;0.50;0.50;;;17.80;67.50;;;17.95;51.74;95636.47;5054878;28;20217;-59
2023/05/03 05:35:10;;;;;;;0.40;0.40;;;17.80;67.50;;;17.93;51.66;95632.16;5057785;28;20201;-57
2023/05/03 05:37:37;;;;;;;0.40;0.40;;;17.80;68.40;;;17.95;51.78;95642.56;5056759;28;20567;-59
2023/05/03 05:40:07;;;;;;;0.40;0.40;;;17.80;67.50;;;17.96;51.84;95646.06;5056876;28;20195;-56
2023/05/03 05:42:42;;;;;;;0.50;0.50;;;17.80;67.60;;;17.94;51.88;95646.22;5056830;28;20210;-55
2023/05/03 05:45:10;;;;;;;0.43;0.43;;;17.80;67.50;;;17.95;51.85;95649.75;5056786;28;20215;-56
2023/05/03 05:47:39;;;;;;;0.40;0.40;;;17.80;67.50;;;17.95;51.71;95644.44;5056722;28;20607;-57
2023/05/03 05:50:07;;;;;;;0.47;0.47;;;17.80;67.50;;;17.97;51.66;95658.28;5073369;28;20679;-57
2023/05/03 05:52:51;;;;;;;0.50;0.50;;;17.80;67.50;;;17.95;51.66;95661.16;5056656;28;20192;-59
2023/05/03 05:55:20;;;;;;;0.47;0.47;;;17.80;67.60;;;17.91;51.99;95657.28;5057551;28;20259;-57
2023/05/03 05:57:48;;;;;;;0.40;0.40;;;17.80;67.60;;;17.97;52.26;95669.72;5056395;28;20199;-57
2023/05/03 06:00:20;;;;;;;0.50;0.50;;;17.80;67.60;;;17.91;52.07;95666.06;5056482;28;20199;-59
2023/05/03 06:02:47;;;;;;;0.50;0.50;;;17.80;67.60;;;17.97;51.75;95666.22;5056429;28;20196;-59
2023/05/03 06:05:17;;;;;;;0.50;0.50;;;17.80;67.60;;;17.98;52.23;95663.38;5057579;28;20206;-57
2023/05/03 06:07:45;;;;;;;0.50;0.50;;;17.80;67.60;;;17.98;52.20;95660.72;5056389;28;20192;-56
2023/05/03 06:10:12;;;;;;;0.50;0.50;;;17.80;67.60;;;17.99;51.86;95658.88;5057260;28;20525;-59
2023/05/03 06:12:44;;;;;;;0.50;0.50;;;17.80;67.60;;;17.99;52.25;95662.34;5056257;28;20279;-56
2023/05/03 06:15:16;;;;;;;0.47;0.47;;;17.80;67.60;;;17.99;52.13;95667.66;5072909;28;20290;-57
2023/05/03 06:17:44;;;;;;;0.40;0.40;;;17.90;67.70;;;17.99;52.30;95661.53;5056034;28;20215;-56
2023/05/03 06:20:11;;;;;;;0.40;0.40;;;17.90;67.70;;;18.00;52.17;95663.16;5057287;28;20225;-59
2023/05/03 06:22:40;;;;;;;0.50;0.50;;;17.90;67.70;;;18.00;52.43;95666.59;5055877;28;20239;-59
2023/05/03 06:25:09;;;;;;;0.50;0.50;;;17.90;67.60;;;18.01;51.85;95665.59;5072859;28;20226;-58
2023/05/03 06:27:37;;;;;;;0.50;0.50;;;17.90;67.60;;;18.02;52.07;95666.41;5039555;28;20313;-59
2023/05/03 06:30:07;;;;;;;0.45;0.45;;;17.90;67.60;;;18.03;52.19;95665.38;5057124;28;20184;-56
2023/05/03 06:32:34;;;;;;;0.50;0.50;;;17.90;67.70;;;18.04;52.27;95664.31;5039427;28;20227;-59
2023/05/03 06:35:02;;;;;;;0.40;0.40;;;17.90;67.70;;;18.04;52.06;95670.47;5039804;28;20199;-57
2023/05/03 06:37:29;;;;;;;0.30;0.30;;;17.90;67.60;;;18.00;52.11;95668.47;5055802;28;20548;-56
2023/05/03 06:39:56;;;;;;;0.50;0.50;;;17.90;67.60;;;18.04;51.71;95673.13;5056508;28;20199;-55
2023/05/03 06:42:23;;;;;;;0.60;0.60;;;17.90;67.50;;;18.06;52.05;95670.25;5072421;28;20298;-57
2023/05/03 06:45:04;;;;;;;0.50;0.50;;;17.90;67.60;;;18.06;52.01;95675.53;5055419;28;20258;-58
2023/05/03 06:47:31;;;;;;;0.40;0.40;;;17.90;67.50;;;18.04;51.63;95673.13;5057091;28;20219;-60
2023/05/03 06:49:58;;;;;;;0.50;0.50;;;17.90;67.50;;;18.06;51.71;95675.53;5055393;28;20600;-58
2023/05/03 06:52:26;;;;;;;0.50;0.50;;;17.90;67.60;;;18.05;52.11;95679.22;5057034;28;20198;-59
2023/05/03 06:54:53;;;;;;;0.50;0.50;;;17.90;67.50;;;18.06;51.73;95678.19;5056407;28;20195;-59
2023/05/03 06:57:21;;;;;;;0.50;0.50;;;17.90;67.50;;;18.05;52.18;95685.38;5057166;28;20199;-59
2023/05/03 06:59:48;;;;;;;0.50;0.50;;;17.90;67.50;;;18.06;51.88;95680.84;5056424;28;20199;-57
2023/05/03 07:02:16;;;;;;;0.50;0.50;;;17.90;67.50;;;18.06;51.77;95676.34;5056243;28;20195;-57
2023/05/03 07:04:43;;;;;;;0.50;0.50;;;17.90;67.50;;;18.08;51.59;95673.50;5038771;28;20215;-56
2023/05/03 07:07:10;;;;;;;0.50;0.50;;;18.00;67.60;;;18.07;51.59;95688.59;5056153;28;20615;-57
2023/05/03 07:09:37;;;;;;;0.43;0.43;;;17.90;67.50;;;18.08;51.61;95687.56;5056587;28;20183;-57
2023/05/03 07:12:10;;;;;;;0.50;0.50;;;17.90;67.50;;;18.09;51.50;95685.75;5056403;28;20180;-57
2023/05/03 07:14:38;;;;;;;0.52;0.52;;;17.90;67.40;;;18.10;51.69;95681.22;5055752;28;20219;-59
2023/05/03 07:17:06;;;;;;;0.50;0.50;;;18.00;67.50;;;18.09;51.70;95688.41;5056449;28;20643;-58
2023/05/03 07:19:33;;;;;;;0.60;0.60;;;17.90;67.30;;;18.08;51.65;95687.56;5056355;28;20641;-59
2023/05/03 07:22:02;;;;;;;0.40;0.40;;;17.90;67.30;;;18.12;51.93;95692.44;5055712;28;20230;-59
2023/05/03 07:24:29;;;;;;;0.60;0.60;;;17.90;67.30;;;18.11;51.74;95683.66;5056134;28;20211;-57
2023/05/03 07:26:57;;;;;;;0.40;0.40;;;17.90;67.30;;;18.12;51.86;95690.59;5056064;28;20198;-58
2023/05/03 07:29:25;;;;;;;0.50;0.50;;;17.90;67.30;;;18.13;51.39;95692.22;5055824;28;20196;-60
2023/05/03 07:31:52;;;;;;;0.50;0.50;;;18.00;67.40;;;18.13;51.79;95688.78;5055995;28;20222;-58
2023/05/03 07:34:20;;;;;;;0.50;0.50;;;18.00;67.30;;;18.15;51.55;95694.66;5055119;28;20249;-58
2023/05/03 07:36:47;;;;;;;0.50;0.50;;;18.00;67.30;;;18.14;51.51;95693.84;5055880;28;20310;-55
2023/05/03 07:39:14;;;;;;;0.40;0.40;;;18.00;67.30;;;18.15;51.59;95700.78;5055910;28;20191;-58
2023/05/03 07:41:41;;;;;;;0.47;0.47;;;18.00;67.40;;;18.15;51.40;95692.00;5055572;28;20677;-58
2023/05/03 07:44:08;;;;;;;0.50;0.50;;;18.00;67.40;;;18.14;51.59;95685.88;5055368;28;20223;-58
2023/05/03 07:46:35;;;;;;;0.50;0.50;;;18.00;67.30;;;18.17;52.03;95692.59;5055943;28;20615;-60
2023/05/03 07:49:05;;;;;;;0.43;0.43;;;18.00;67.40;;;18.18;51.62;95688.91;5054306;28;20207;-57
2023/05/03 07:51:37;;;;;;;0.50;0.50;;;18.00;68.20;;;18.17;51.43;95688.09;5055645;28;20187;-57
2023/05/03 07:54:05;;;;;;;0.43;0.43;;;18.00;67.30;;;18.18;51.77;95691.56;5055282;28;20631;-56
2023/05/03 07:56:32;;;;;;;0.50;0.50;;;18.00;67.30;;;18.20;51.81;95697.44;5054916;28;20199;-58
2023/05/03 07:58:59;;;;;;;0.57;0.57;;;18.00;67.40;;;18.19;51.53;95696.66;5055300;28;20565;-56
2023/05/03 08:01:37;;;;;;;0.50;0.50;;;18.00;67.20;;;18.20;51.38;95687.66;5055790;28;20183;-59
2023/05/03 08:04:04;;;;;;;0.50;0.50;;;18.00;67.20;;;18.20;51.16;95692.97;5055048;28;20221;-59
2023/05/03 08:06:34;;;;;;;0.50;0.50;;;18.00;67.20;;;18.22;51.53;95690.91;5055140;28;20678;-59
2023/05/03 08:09:03;;;;;;;0.50;0.50;;;18.00;67.20;;;18.24;51.45;95685.38;5054151;28;20206;-57
2023/05/03 08:11:30;;;;;;;0.50;0.50;;;18.00;67.20;;;18.24;51.40;95690.69;5055316;28;20215;-58
2023/05/03 08:13:57;;;;;;;0.43;0.43;;;18.10;67.30;;;18.24;51.56;95686.16;5055100;28;20240;-58
2023/05/03 08:16:24;;;;;;;0.50;0.50;;;18.10;67.30;;;18.26;51.75;95677.19;5054137;28;20287;-60
2023/05/03 08:18:52;;;;;;;0.47;0.47;;;18.10;67.20;;;18.28;51.69;95680.44;5055311;28;20199;-58
2023/05/03 08:21:19;;;;;;;0.50;0.50;;;18.10;67.20;;;18.28;51.03;95681.22;5054906;28;20191;-59
2023/05/03 08:23:46;;;;;;;0.50;0.50;;;18.10;67.10;;;18.29;51.38;95674.88;5055380;28;20210;-58
2023/05/03 08:26:14;;;;;;;0.50;0.50;;;18.10;67.10;;;18.32;51.44;95677.13;5055107;28;20203;-58
2023/05/03 08:28:41;;;;;;;0.50;0.50;;;18.10;67.10;;;18.32;51.28;95674.47;5055227;28;20187;-53
2023/05/03 08:31:08;;;;;;;0.50;0.50;;;18.10;67.00;;;18.32;51.35;95677.13;5055409;28;20523;-58
2023/05/03 08:33:36;;;;;;;0.50;0.50;;;18.20;67.20;;;18.34;51.46;95676.88;5054793;28;20198;-58
2023/05/03 08:36:03;;;;;;;0.57;0.57;;;18.20;67.20;;;18.36;51.51;95683.59;5055079;28;20199;-57
2023/05/03 08:38:30;;;;;;;0.57;0.57;;;18.20;67.20;;;18.38;51.46;95684.19;5055430;28;20503;-56
2023/05/03 08:41:05;;;;;;;0.43;0.43;;;18.20;67.10;;;18.35;51.35;95679.31;5054183;28;20191;-57
2023/05/03 08:43:35;;;;;;;0.50;0.50;;;18.20;67.00;;;18.39;51.57;95685.00;5053905;28;20610;-57
2023/05/03 08:46:03;;;;;;;0.50;0.50;;;18.20;67.80;;;18.42;50.90;95691.72;5053813;28;20204;-56
2023/05/03 08:48:30;;;;;;;0.50;0.50;;;18.20;66.90;;;18.42;50.96;95695.19;5053710;28;20210;-60
2023/05/03 08:50:59;;;;;;;0.50;0.50;;;18.30;67.00;;;18.43;50.90;95677.41;5054633;28;20191;-60
2023/05/03 08:53:26;;;;;;;0.40;0.40;;;18.30;67.00;;;18.44;51.40;95693.09;5054084;28;20191;-59
2023/05/03 08:55:53;;;;;;;0.60;0.60;;;18.30;66.90;;;18.45;51.01;95689.41;5055179;28;20191;-59
2023/05/03 08:58:20;;;;;;;0.50;0.50;;;18.30;67.80;;;18.47;50.88;95690.03;5054586;28;20261;-59
2023/05/03 09:00:47;;;;;;;0.40;0.40;;;18.30;66.80;;;18.48;51.25;95681.03;5054351;28;20286;-57
2023/05/03 09:03:14;;;;;;;0.50;0.50;;;18.30;66.90;;;18.49;50.97;95682.66;5053701;28;20203;-58
2023/05/03 09:05:43;;;;;;;0.50;0.50;;;18.30;66.90;;;18.51;51.01;95680.56;5054733;28;20203;-60
2023/05/03 09:08:12;;;;;;;0.47;0.47;;;18.30;66.80;;;18.52;50.78;95682.19;5058356;28;20199;-60
2023/05/03 09:10:41;;;;;;;0.50;0.50;;;18.30;66.80;;;18.55;51.18;95683.59;5058281;28;20191;-57
2023/05/03 09:13:09;;;;;;;0.40;0.40;;;18.40;66.90;;;18.55;50.90;95689.72;5057623;28;20183;-57
2023/05/03 09:15:37;;;;;;;0.60;0.60;;;18.40;67.70;;;18.58;51.13;95691.13;5057964;28;20204;-61
2023/05/03 09:18:18;;;;;;;0.40;0.40;;;18.40;66.80;;;18.59;50.57;95690.09;5058271;28;20269;-57
2023/05/03 09:20:50;;;;;;;0.50;0.50;;;18.40;66.60;;;18.61;50.85;95692.53;5058179;28;20191;-63
2023/05/03 09:23:25;;;;;;;0.50;0.50;;;18.40;66.70;;;18.61;50.99;95688.00;5058185;28;20227;-61
2023/05/03 09:25:52;;;;;;;0.60;0.60;;;18.50;66.70;;;18.63;51.04;95695.78;5057190;28;20203;-62
2023/05/03 09:28:20;;;;;;;0.50;0.50;;;18.50;66.70;;;18.65;50.86;95685.72;5057182;28;20197;-60
2023/05/03 09:30:49;;;;;;;0.43;0.43;;;18.50;66.70;;;18.66;50.40;95685.50;5057143;28;20199;-63
2023/05/03 09:33:28;;;;;;;0.55;0.55;;;18.50;66.60;;;18.67;50.46;95678.34;5057177;28;20287;-64
2023/05/03 09:36:01;;;;;;;0.40;0.40;;;18.50;66.60;;;18.68;50.84;95677.31;5057459;28;20266;-63
2023/05/03 09:38:32;;;;;;;0.47;0.47;;;18.50;66.50;;;18.71;50.81;95682.16;5058344;28;20208;-63
2023/05/03 09:41:06;;;;;;;0.50;0.50;;;18.50;66.50;;;18.70;50.33;95686.66;5057031;28;20195;-63
2023/05/03 09:43:36;;;;;;;0.60;0.60;;;18.50;67.40;;;18.72;50.55;95679.28;5056956;28;20219;-60
2023/05/03 09:46:13;;;;;;;0.50;0.50;;;18.50;66.50;;;18.74;50.26;95681.72;5040932;28;20204;-63
2023/05/03 09:48:41;;;;;;;0.50;0.50;;;18.50;66.30;;;18.75;50.67;95679.88;5058263;28;20190;-63
2023/05/03 09:51:10;;;;;;;0.60;0.60;;;18.50;66.50;;;18.76;50.72;95681.50;5057763;28;20253;-63
2023/05/03 09:53:38;;;;;;;0.52;0.52;;;18.60;66.50;;;18.77;50.79;95678.59;5057607;28;20196;-63
2023/05/03 09:56:08;;;;;;;0.40;0.40;;;18.60;66.50;;;18.78;50.24;95680.22;5057489;28;20587;-63
2023/05/03 09:58:36;;;;;;;0.50;0.50;;;18.60;66.40;;;18.81;50.71;95673.66;5057827;28;20611;-63
2023/05/03 10:01:03;;;;;;;0.50;0.50;;;18.60;66.40;;;18.82;50.12;95670.78;5057167;28;20200;-63
2023/05/03 10:03:39;;;;;;;0.50;0.50;;;18.60;66.40;;;18.83;50.34;95671.59;5056988;28;20619;-63
2023/05/03 10:06:35;;;;;;;0.50;0.50;;;18.60;66.40;;;18.83;50.71;95669.72;5057286;28;20634;-63
2023/05/03 10:09:24;;;;;;;0.50;0.50;;;18.60;66.20;;;18.84;49.93;95663.38;5055215;28;20219;-63
2023/05/03 10:11:57;;;;;;;0.40;0.40;;;18.60;66.20;;;18.86;50.34;95666.63;5056758;28;20203;-63
2023/05/03 10:14:25;;;;;;;0.45;0.45;;;18.70;66.30;;;18.88;50.11;95664.56;5056425;28;20183;-63
2023/05/03 10:17:00;;;;;;;0.50;0.50;;;18.70;66.40;;;18.81;50.43;95655.88;5057269;28;20188;-63
2023/05/03 10:19:39;;;;;;;0.40;0.40;;;18.70;66.30;;;18.90;49.82;95664.34;5055749;28;20611;-63
2023/05/03 10:22:10;;;;;;;0.40;0.40;;;18.70;66.20;;;18.92;49.81;95658.81;5056107;28;20235;-63
2023/05/03 10:25:01;;;;;;;0.40;0.40;;;18.70;66.20;;;18.92;49.96;95667.63;5056417;28;20201;-63
2023/05/03 10:28:02;;;;;;;0.50;0.50;;;18.70;66.10;;;18.91;49.88;95670.44;5055849;28;20200;-63
2023/05/03 10:30:39;;;;;;;0.45;0.45;;;18.70;66.00;;;18.90;49.94;95659.03;5045608;28;20211;-63
2023/05/03 10:33:12;;;;;;;0.50;0.50;;;18.70;65.90;;;18.92;49.83;95661.47;5056341;28;20178;-63